KLUL/LUL METAR and TAF weather

Enter ICAO airport designator
Station Type Date Time Source
KLUL METAR 2020/01/13 08:30 UTC NOAA

KLUL 130830Z AUTO 27006KT 7SM RA OVC007 13/13 A3027 RMK A02 P0006 T01300126


Station Type Date Time Source
KLUL Decoded METAR 2020/01/13 08:30 UTC NOAA

Station name not available
Jan 13, 2020 - 03:30 AM EST / 2020.01.13 0830 UTC
Wind: from the W (270 degrees) at 7 MPH (6 KT):0
Visibility: 7 mile(s):0
Sky conditions: overcast
Weather: rain
Precipitation last hour: 0.06 inches
Temperature: 55.4 F (13.0 C)
Dew Point: 54.7 F (12.6 C)
Relative Humidity: 97%
Pressure (altimeter): 30.27 in. Hg (1025 hPa)
ob: KLUL 130830Z AUTO 27006KT 7SM RA OVC007 13/13 A3027 RMK A02 P0006 T01300126
cycle: 8

Station Type Date Time Source
KLUL TAF UTC NOAA

Error!

Example: see airport list